Time;durP1;ratioP1;P1;durP2;ratioP2;P2;SDS_P1;SDS_P2;PMS_P1;PMS_P2;Temp;Humidity;BMP_temperature;BMP_pressure;BME280_temperature;BME280_humidity;BME280_pressure;Samples;Min_cycle;Max_cycle;Signal;HPM_P1;HPM_P2
2022/07/13 00:02:15;;;;;;;2.00;1.50;;;14.30;89.20;;;;;;5052869;28;20036;-71
2022/07/13 00:04:40;;;;;;;2.25;1.65;;;14.30;89.70;;;;;;5054214;28;20017;-72
2022/07/13 00:07:06;;;;;;;2.97;1.15;;;14.20;90.40;;;;;;5054077;28;20021;-72
2022/07/13 00:09:32;;;;;;;3.53;1.50;;;14.10;90.90;;;;;;5053391;28;20033;-71
2022/07/13 00:11:57;;;;;;;2.08;0.90;;;14.10;91.40;;;;;;5054003;28;20405;-71
2022/07/13 00:14:23;;;;;;;2.83;1.45;;;14.00;91.70;;;;;;5053947;28;20398;-75
2022/07/13 00:16:49;;;;;;;2.90;1.13;;;14.00;92.50;;;;;;5052540;28;20029;-72
2022/07/13 00:19:15;;;;;;;5.20;1.27;;;13.90;92.10;;;;;;5053695;28;20036;-72
2022/07/13 00:21:41;;;;;;;4.25;1.40;;;13.90;93.40;;;;;;5053844;28;20112;-75
2022/07/13 00:24:06;;;;;;;2.40;1.35;;;13.80;94.40;;;;;;5053836;28;20098;-75
2022/07/13 00:26:32;;;;;;;1.60;1.50;;;13.80;94.40;;;;;;5052389;28;20033;-71
2022/07/13 00:28:58;;;;;;;1.45;1.35;;;13.80;95.90;;;;;;5053609;28;20039;-71
2022/07/13 00:31:23;;;;;;;1.45;1.20;;;13.70;94.20;;;;;;5053556;28;20041;-72
2022/07/13 00:33:49;;;;;;;1.20;1.10;;;13.60;95.70;;;;;;5053717;28;20020;-71
2022/07/13 00:36:15;;;;;;;2.15;1.10;;;13.60;95.80;;;;;;5053257;28;20494;-75
2022/07/13 00:38:41;;;;;;;2.00;1.80;;;13.50;96.00;;;;;;5052611;28;20116;-75
2022/07/13 00:41:06;;;;;;;2.63;1.50;;;13.50;96.80;;;;;;5053469;28;20120;-71
2022/07/13 00:43:32;;;;;;;3.03;1.33;;;13.40;97.30;;;;;;5053586;28;20088;-75
2022/07/13 00:45:58;;;;;;;8.45;1.75;;;13.30;98.40;;;;;;5053681;28;20035;-75
2022/07/13 00:48:25;;;;;;;2.75;1.45;;;13.30;99.90;;;;;;5053235;28;20051;-75
2022/07/13 00:50:51;;;;;;;7.18;1.40;;;13.30;99.90;;;;;;5053126;28;20379;-72
2022/07/13 00:53:18;;;;;;;2.05;1.38;;;13.30;99.90;;;;;;5053345;28;20021;-75
2022/07/13 00:55:46;;;;;;;1.55;1.33;;;13.20;99.90;;;;;;5053114;28;20040;-75
2022/07/13 00:58:12;;;;;;;3.40;1.30;;;13.10;99.90;;;;;;5053194;28;20028;-71
2022/07/13 01:00:38;;;;;;;2.92;1.48;;;13.10;99.90;;;;;;5053225;28;20036;-75
2022/07/13 01:03:04;;;;;;;1.30;1.20;;;13.10;99.90;;;;;;5051788;28;20029;-75
2022/07/13 01:05:30;;;;;;;4.35;2.83;;;13.10;99.90;;;;;;5053172;28;20409;-71
2022/07/13 01:07:56;;;;;;;1.92;1.65;;;13.10;99.90;;;;;;5053017;28;20482;-75
2022/07/13 01:10:22;;;;;;;3.78;1.60;;;13.00;99.90;;;;;;5051762;28;20023;-75
2022/07/13 01:12:48;;;;;;;2.38;1.33;;;13.00;99.90;;;;;;5053005;28;20099;-75
2022/07/13 01:15:15;;;;;;;1.50;1.40;;;12.90;99.90;;;;;;5051670;28;20578;-75
2022/07/13 01:17:41;;;;;;;1.80;1.33;;;12.90;99.90;;;;;;5052953;28;20068;-72
2022/07/13 01:20:08;;;;;;;4.18;1.65;;;12.80;99.90;;;;;;5052842;28;20486;-75
2022/07/13 01:22:41;;;;;;;2.13;1.33;;;12.80;99.90;;;;;;5052743;28;20429;-75
2022/07/13 01:25:07;;;;;;;;;;;12.70;99.90;;;;;;5052090;28;20021;-71
2022/07/13 01:27:35;;;;;;;2.58;1.48;;;12.70;99.90;;;;;;5052899;28;20415;-72
2022/07/13 01:30:01;;;;;;;1.58;1.40;;;12.60;99.90;;;;;;5052782;28;20021;-75
2022/07/13 01:32:27;;;;;;;7.10;1.67;;;12.60;99.90;;;;;;5051286;28;20045;-71
2022/07/13 01:34:53;;;;;;;2.78;1.67;;;12.40;99.90;;;;;;5052690;28;20033;-75
2022/07/13 01:37:19;;;;;;;4.53;1.40;;;12.40;99.90;;;;;;5052762;28;20107;-71
2022/07/13 01:39:45;;;;;;;1.60;1.50;;;12.40;99.90;;;;;;5052736;28;20525;-75
2022/07/13 01:42:11;;;;;;;2.08;1.83;;;12.30;99.90;;;;;;5052744;28;20025;-71
2022/07/13 01:44:36;;;;;;;2.97;1.70;;;12.20;99.90;;;;;;5052730;28;20029;-75
2022/07/13 01:47:09;;;;;;;5.00;2.28;;;12.20;99.90;;;;;;5052597;28;20021;-71
2022/07/13 01:49:35;;;;;;;1.90;1.80;;;12.20;99.90;;;;;;5052866;28;20045;-75
2022/07/13 01:52:00;;;;;;;3.95;1.60;;;12.20;99.90;;;;;;5052787;28;20515;-71
2022/07/13 01:54:26;;;;;;;2.38;1.30;;;12.10;99.90;;;;;;5052847;28;20479;-71
2022/07/13 01:56:52;;;;;;;5.60;1.60;;;12.10;99.90;;;;;;5051262;28;20083;-72
2022/07/13 01:59:18;;;;;;;1.63;1.52;;;12.10;99.90;;;;;;5051412;28;20048;-71
2022/07/13 02:01:44;;;;;;;1.50;1.40;;;12.10;99.90;;;;;;5052937;28;20025;-76
2022/07/13 02:04:10;;;;;;;2.15;1.58;;;12.10;99.90;;;;;;5052532;28;20032;-75
2022/07/13 02:06:36;;;;;;;2.33;1.50;;;12.10;99.90;;;;;;5051396;28;20170;-71
2022/07/13 02:09:02;;;;;;;1.38;1.27;;;12.10;99.90;;;;;;5052548;28;20482;-76
2022/07/13 02:11:28;;;;;;;2.70;1.65;;;12.00;99.90;;;;;;5052569;28;20025;-76
2022/07/13 02:13:54;;;;;;;2.75;1.65;;;12.00;99.90;;;;;;5051082;28;20497;-76
2022/07/13 02:16:20;;;;;;;2.60;1.40;;;11.90;99.90;;;;;;5051342;28;20508;-76
2022/07/13 02:18:45;;;;;;;2.58;1.67;;;11.80;99.90;;;;;;5051154;28;20024;-76
2022/07/13 02:21:12;;;;;;;4.25;1.70;;;11.70;99.90;;;;;;5051244;28;20025;-76
2022/07/13 02:23:38;;;;;;;6.75;1.95;;;11.70;99.90;;;;;;5052511;28;20032;-72
2022/07/13 02:26:04;;;;;;;3.60;1.45;;;11.70;99.90;;;;;;5052468;28;20436;-75
2022/07/13 02:28:30;;;;;;;5.40;1.95;;;11.70;99.90;;;;;;5052442;28;20017;-72
2022/07/13 02:30:56;;;;;;;1.92;1.65;;;11.60;99.90;;;;;;5052411;28;20425;-71
2022/07/13 02:33:21;;;;;;;2.45;1.52;;;11.60;99.90;;;;;;5053934;28;20053;-75
2022/07/13 02:35:47;;;;;;;6.30;1.63;;;11.60;99.90;;;;;;5054745;28;20120;-71
2022/07/13 02:38:13;;;;;;;3.88;2.35;;;11.50;99.90;;;;;;5055904;28;20021;-75
2022/07/13 02:40:38;;;;;;;2.15;1.48;;;11.50;99.90;;;;;;5056054;28;20527;-75
2022/07/13 02:43:04;;;;;;;2.30;1.50;;;11.50;99.90;;;;;;5055860;28;20508;-71
2022/07/13 02:45:30;;;;;;;3.03;1.77;;;11.50;99.90;;;;;;5054519;28;20021;-72
2022/07/13 02:47:56;;;;;;;1.83;1.73;;;11.40;99.90;;;;;;5055604;28;20013;-75
2022/07/13 02:50:22;;;;;;;3.60;2.00;;;11.30;99.90;;;;;;5054705;28;20547;-75
2022/07/13 02:52:48;;;;;;;3.70;1.98;;;11.20;99.90;;;;;;5054347;28;20417;-72
2022/07/13 02:55:14;;;;;;;1.85;1.67;;;11.20;99.90;;;;;;5054453;28;20033;-76
2022/07/13 02:57:40;;;;;;;2.80;2.00;;;11.20;99.90;;;;;;5055481;28;20021;-72
2022/07/13 03:00:07;;;;;;;3.83;2.15;;;11.10;99.90;;;;;;5055715;28;20025;-75
2022/07/13 03:02:32;;;;;;;6.95;2.08;;;11.20;99.90;;;;;;5055325;28;20490;-71
2022/07/13 03:04:58;;;;;;;6.63;2.05;;;11.20;99.90;;;;;;5055378;28;20029;-76
2022/07/13 03:07:24;;;;;;;2.38;1.73;;;11.20;99.90;;;;;;5054258;28;20035;-75
2022/07/13 03:09:50;;;;;;;5.97;2.20;;;11.20;99.90;;;;;;5054039;28;20059;-75
2022/07/13 03:12:15;;;;;;;1.67;1.58;;;11.30;99.90;;;;;;5054201;28;20448;-75
2022/07/13 03:14:41;;;;;;;4.45;1.80;;;11.30;99.90;;;;;;5055104;28;20020;-71
2022/07/13 03:17:07;;;;;;;3.65;2.25;;;11.30;99.90;;;;;;5055211;28;20075;-76
2022/07/13 03:19:33;;;;;;;4.72;2.00;;;11.30;99.90;;;;;;5053923;28;20079;-71
2022/07/13 03:22:01;;;;;;;3.92;2.33;;;11.30;99.90;;;;;;5053871;28;20021;-72
2022/07/13 03:24:29;;;;;;;2.35;2.13;;;11.40;99.90;;;;;;5055129;28;20064;-75
2022/07/13 03:26:55;;;;;;;2.58;2.10;;;11.50;99.90;;;;;;5053769;28;20550;-71
2022/07/13 03:29:20;;;;;;;3.10;2.22;;;11.60;99.90;;;;;;5054997;28;20049;-72
2022/07/13 03:31:46;;;;;;;3.33;2.05;;;11.80;99.90;;;;;;5054949;28;20127;-71
2022/07/13 03:34:12;;;;;;;2.20;1.92;;;12.10;99.90;;;;;;5053541;28;20021;-75
2022/07/13 03:36:37;;;;;;;2.95;2.20;;;12.30;99.90;;;;;;5053586;28;20060;-75
2022/07/13 03:39:03;;;;;;;4.82;2.10;;;12.70;99.90;;;;;;5054708;28;20029;-71
2022/07/13 03:41:29;;;;;;;1.60;1.50;;;13.00;99.90;;;;;;5053721;28;20070;-75
2022/07/13 03:43:54;;;;;;;5.10;1.90;;;13.30;99.90;;;;;;5052841;28;20029;-72
2022/07/13 03:46:20;;;;;;;2.97;1.80;;;13.50;99.90;;;;;;5054173;28;20401;-75
2022/07/13 03:48:45;;;;;;;5.07;1.80;;;13.80;99.90;;;;;;5054573;28;20025;-75
2022/07/13 03:51:11;;;;;;;1.98;1.65;;;14.10;99.90;;;;;;5054585;28;20028;-71
2022/07/13 03:53:37;;;;;;;1.90;1.60;;;14.30;99.90;;;;;;5054589;28;20036;-75
2022/07/13 03:56:03;;;;;;;1.98;1.75;;;14.60;99.90;;;;;;5054445;28;20090;-72
2022/07/13 03:58:28;;;;;;;2.35;1.80;;;14.80;99.90;;;;;;5054408;28;20021;-75
2022/07/13 04:00:55;;;;;;;1.55;1.45;;;14.80;98.90;;;;;;5054396;28;20110;-72
2022/07/13 04:03:21;;;;;;;4.75;1.73;;;14.90;99.90;;;;;;5054336;28;20028;-72
2022/07/13 04:05:46;;;;;;;4.47;1.88;;;15.20;98.60;;;;;;5054316;28;20518;-75
2022/07/13 04:08:12;;;;;;;2.35;1.70;;;15.20;96.60;;;;;;5054418;28;20493;-76
2022/07/13 04:10:38;;;;;;;1.70;1.60;;;15.20;95.90;;;;;;5054201;28;20024;-75
2022/07/13 04:13:03;;;;;;;2.25;1.50;;;15.40;96.90;;;;;;5054043;28;20049;-75
2022/07/13 04:15:29;;;;;;;3.70;1.83;;;15.60;96.20;;;;;;5054095;28;20079;-75
2022/07/13 04:17:55;;;;;;;8.27;2.15;;;15.70;94.90;;;;;;5054053;28;20051;-75
2022/07/13 04:20:21;;;;;;;2.17;1.75;;;15.80;93.80;;;;;;5053982;28;20025;-72
2022/07/13 04:22:46;;;;;;;2.63;1.60;;;15.70;95.20;;;;;;5052717;28;20035;-72
2022/07/13 04:25:12;;;;;;;2.50;1.23;;;15.70;95.50;;;;;;5053942;28;20044;-76
2022/07/13 04:27:38;;;;;;;2.13;1.77;;;15.60;96.60;;;;;;5052849;28;20017;-73
2022/07/13 04:30:03;;;;;;;2.05;1.60;;;15.80;98.20;;;;;;5053753;28;20036;-72
2022/07/13 04:32:29;;;;;;;1.90;1.80;;;15.80;97.50;;;;;;5053675;28;20049;-72
2022/07/13 04:34:55;;;;;;;3.47;1.80;;;15.80;98.10;;;;;;5053484;28;20033;-72
2022/07/13 04:37:20;;;;;;;2.25;1.52;;;15.80;99.20;;;;;;5053842;28;20033;-75
2022/07/13 04:39:46;;;;;;;1.65;1.40;;;15.80;99.90;;;;;;5053688;28;20410;-75
2022/07/13 04:42:12;;;;;;;2.15;1.40;;;15.80;99.90;;;;;;5053827;28;20116;-75
2022/07/13 04:44:37;;;;;;;3.60;1.48;;;15.80;99.90;;;;;;5052273;28;20103;-74
2022/07/13 04:47:03;;;;;;;1.75;1.65;;;15.80;99.90;;;;;;5053526;28;20029;-73
2022/07/13 04:49:29;;;;;;;3.78;1.50;;;15.80;99.90;;;;;;5052097;28;20020;-75
2022/07/13 04:51:54;;;;;;;2.80;1.55;;;15.70;99.90;;;;;;5052270;28;20116;-72
2022/07/13 04:54:21;;;;;;;2.78;1.83;;;15.80;99.90;;;;;;5053475;28;20410;-74
2022/07/13 04:56:48;;;;;;;1.83;1.48;;;15.80;99.90;;;;;;5053048;28;20056;-75
2022/07/13 04:59:14;;;;;;;2.28;1.70;;;16.00;99.90;;;;;;5053244;28;20104;-75
2022/07/13 05:01:41;;;;;;;1.75;1.65;;;16.00;99.90;;;;;;5053415;28;20036;-72
2022/07/13 05:04:07;;;;;;;3.40;1.70;;;16.00;99.90;;;;;;5053291;28;20096;-74
2022/07/13 05:06:33;;;;;;;2.15;1.67;;;16.00;99.90;;;;;;5053312;28;20025;-73
2022/07/13 05:08:59;;;;;;;2.03;1.80;;;16.00;99.90;;;;;;5053205;28;20057;-74
2022/07/13 05:11:25;;;;;;;4.28;2.00;;;16.10;99.90;;;;;;5053137;28;20028;-74
2022/07/13 05:13:52;;;;;;;2.95;1.63;;;16.00;99.90;;;;;;5053134;28;20509;-72
2022/07/13 05:16:18;;;;;;;4.50;1.85;;;16.10;99.90;;;;;;5052990;28;20036;-72
2022/07/13 05:18:44;;;;;;;2.78;1.48;;;16.20;99.90;;;;;;5053120;28;20127;-74
2022/07/13 05:21:10;;;;;;;2.45;1.30;;;16.30;99.90;;;;;;5051677;28;20044;-72
2022/07/13 05:23:37;;;;;;;1.45;1.35;;;16.30;99.90;;;;;;5053139;28;20537;-74
2022/07/13 05:26:03;;;;;;;2.80;1.85;;;16.20;99.90;;;;;;5052806;28;20032;-75
2022/07/13 05:28:30;;;;;;;3.10;1.90;;;16.30;99.90;;;;;;5051594;28;20021;-75
2022/07/13 05:30:56;;;;;;;2.75;1.70;;;16.30;99.90;;;;;;5052894;28;20536;-72
2022/07/13 05:33:22;;;;;;;1.95;1.80;;;16.50;99.90;;;;;;5053170;28;20053;-72
2022/07/13 05:35:48;;;;;;;1.98;1.60;;;16.50;99.90;;;;;;5051530;28;20044;-75
2022/07/13 05:38:14;;;;;;;2.25;1.90;;;16.60;99.90;;;;;;5053020;28;20021;-75
2022/07/13 05:40:39;;;;;;;4.25;2.03;;;16.80;99.90;;;;;;5051677;28;20021;-75
2022/07/13 05:43:06;;;;;;;2.63;1.98;;;16.80;99.90;;;;;;5053013;28;20021;-72
2022/07/13 05:45:32;;;;;;;5.40;2.00;;;16.80;99.90;;;;;;5052888;28;20176;-75
2022/07/13 05:47:58;;;;;;;3.00;2.53;;;17.00;99.90;;;;;;5052547;28;20029;-75
2022/07/13 05:50:24;;;;;;;3.30;1.90;;;17.10;99.90;;;;;;5052767;28;20029;-72
2022/07/13 05:52:50;;;;;;;3.60;1.90;;;17.20;99.90;;;;;;5053191;28;20033;-75
2022/07/13 05:55:15;;;;;;;3.78;1.70;;;17.40;99.90;;;;;;5052697;28;20492;-72
2022/07/13 05:57:42;;;;;;;3.22;1.63;;;17.40;99.90;;;;;;5051617;28;20021;-73
2022/07/13 06:00:11;;;;;;;3.80;2.00;;;17.50;99.90;;;;;;5052590;28;20043;-74
2022/07/13 06:02:39;;;;;;;2.85;1.65;;;17.60;99.90;;;;;;5052751;28;20083;-72
2022/07/13 06:05:05;;;;;;;2.97;1.95;;;17.80;99.90;;;;;;5050391;28;20379;-75
2022/07/13 06:07:30;;;;;;;3.35;1.67;;;17.80;98.70;;;;;;5050906;28;20127;-75
2022/07/13 06:10:00;;;;;;;2.67;1.88;;;17.80;99.10;;;;;;5055558;28;20108;-75
2022/07/13 06:12:25;;;;;;;3.00;1.70;;;17.90;99.80;;;;;;5050678;28;20060;-75
2022/07/13 06:14:54;;;;;;;3.15;2.00;;;18.00;99.70;;;;;;5055124;28;20029;-72
2022/07/13 06:17:23;;;;;;;5.15;1.85;;;18.00;93.80;;;;;;5053688;28;20052;-75
2022/07/13 06:19:52;;;;;;;3.13;1.85;;;18.00;97.80;;;;;;5073021;28;20027;-74
2022/07/13 06:22:18;;;;;;;3.95;2.08;;;18.10;96.00;;;;;;5065563;28;20027;-75
2022/07/13 06:24:44;;;;;;;3.15;2.03;;;18.30;94.10;;;;;;5071850;28;20100;-75
2022/07/13 06:27:10;;;;;;;1.92;1.80;;;18.30;94.10;;;;;;5073291;28;20021;-72
2022/07/13 06:29:36;;;;;;;2.55;1.90;;;18.50;96.00;;;;;;5069248;28;20110;-72
2022/07/13 06:32:01;;;;;;;2.92;1.67;;;18.50;90.50;;;;;;5070179;28;20045;-72
2022/07/13 06:34:27;;;;;;;4.47;1.73;;;18.40;90.60;;;;;;5065458;28;20090;-75
2022/07/13 06:36:53;;;;;;;4.65;1.45;;;18.40;90.30;;;;;;5074467;28;20037;-72
2022/07/13 06:39:18;;;;;;;2.80;1.60;;;18.50;89.10;;;;;;5075164;28;20037;-72
2022/07/13 06:41:45;;;;;;;1.70;1.48;;;18.70;91.90;;;;;;5074334;28;20099;-73
2022/07/13 06:44:11;;;;;;;1.98;1.77;;;18.90;91.50;;;;;;5074790;28;20072;-76
2022/07/13 06:46:37;;;;;;;4.82;1.65;;;18.90;88.30;;;;;;5068935;28;20025;-76
2022/07/13 06:49:02;;;;;;;1.77;1.50;;;19.10;90.70;;;;;;5056291;28;20040;-77
2022/07/13 06:51:28;;;;;;;3.58;1.40;;;19.10;84.90;;;;;;5073558;28;20021;-75
2022/07/13 06:53:54;;;;;;;2.33;1.70;;;19.30;89.00;;;;;;5074247;28;20445;-76
2022/07/13 06:56:23;;;;;;;1.95;1.40;;;19.40;84.80;;;;;;5072343;28;20530;-75
2022/07/13 06:58:48;;;;;;;1.90;1.20;;;19.60;87.60;;;;;;5069958;28;20112;-75
2022/07/13 07:01:14;;;;;;;1.60;1.40;;;19.60;83.80;;;;;;5074029;28;20592;-76
2022/07/13 07:03:40;;;;;;;2.78;1.35;;;19.80;86.40;;;;;;5049527;28;20108;-75
2022/07/13 07:06:06;;;;;;;1.63;1.20;;;19.70;81.10;;;;;;5074302;28;20037;-75
2022/07/13 07:08:31;;;;;;;1.42;1.33;;;19.80;81.70;;;;;;5074395;28;20033;-75
2022/07/13 07:10:57;;;;;;;2.28;1.38;;;19.80;80.10;;;;;;5074022;28;20233;-75
2022/07/13 07:13:23;;;;;;;2.90;1.30;;;19.80;81.80;;;;;;5061184;28;20037;-75
2022/07/13 07:15:48;;;;;;;2.28;1.58;;;19.70;78.90;;;;;;5057927;28;20135;-75
2022/07/13 07:18:14;;;;;;;2.13;1.42;;;19.90;82.10;;;;;;5074097;28;20138;-75
2022/07/13 07:20:40;;;;;;;2.95;1.25;;;20.10;81.00;;;;;;5073892;28;20104;-75
2022/07/13 07:23:06;;;;;;;2.58;1.35;;;20.30;81.60;;;;;;5072361;28;20035;-77
2022/07/13 07:25:32;;;;;;;1.55;1.10;;;20.40;80.10;;;;;;5072454;28;20020;-73
2022/07/13 07:27:58;;;;;;;3.75;1.50;;;20.50;78.50;;;;;;5063846;28;20518;-73
2022/07/13 07:30:24;;;;;;;2.15;1.10;;;20.60;76.70;;;;;;5073287;28;20033;-73
2022/07/13 07:32:49;;;;;;;2.47;1.27;;;20.80;76.80;;;;;;5057620;28;20049;-73
2022/07/13 07:35:15;;;;;;;2.20;1.23;;;20.90;76.40;;;;;;5069264;28;20040;-73
2022/07/13 07:37:41;;;;;;;4.28;1.10;;;20.80;73.30;;;;;;5072426;28;20028;-72
2022/07/13 07:40:08;;;;;;;1.60;1.23;;;20.80;73.10;;;;;;5073747;28;20440;-73
2022/07/13 07:42:35;;;;;;;1.83;1.73;;;21.00;73.90;;;;;;5073916;28;20020;-73
2022/07/13 07:45:01;;;;;;;1.85;1.13;;;21.10;74.50;;;;;;5072489;28;20135;-73
2022/07/13 07:47:26;;;;;;;5.60;1.40;;;21.00;73.00;;;;;;5063173;28;20026;-73
2022/07/13 07:49:53;;;;;;;3.75;1.45;;;21.10;75.10;;;;;;5069650;28;20036;-73
2022/07/13 07:52:19;;;;;;;1.15;1.10;;;21.00;71.80;;;;;;5072441;28;20081;-73
2022/07/13 07:54:46;;;;;;;1.70;1.15;;;21.10;72.70;;;;;;5073112;28;20045;-73
2022/07/13 07:57:12;;;;;;;1.50;1.00;;;21.40;71.70;;;;;;5065123;28;20037;-73
2022/07/13 07:59:38;;;;;;;1.88;1.10;;;21.50;71.40;;;;;;5068884;28;20033;-73
2022/07/13 08:02:04;;;;;;;1.10;1.02;;;21.50;70.70;;;;;;5070000;28;20023;-74
2022/07/13 08:04:29;;;;;;;1.75;0.90;;;21.50;70.00;;;;;;5056234;28;20103;-70
2022/07/13 08:06:55;;;;;;;1.52;1.00;;;21.60;69.60;;;;;;5063539;28;20065;-70
2022/07/13 08:09:21;;;;;;;1.17;0.68;;;21.50;67.50;;;;;;5073211;28;20036;-71
2022/07/13 08:11:47;;;;;;;1.67;0.88;;;21.40;66.90;;;;;;5072994;28;20028;-71
2022/07/13 08:14:12;;;;;;;1.20;0.85;;;21.40;66.60;;;;;;5059492;28;20494;-70
2022/07/13 08:16:39;;;;;;;0.98;0.80;;;21.40;66.30;;;;;;5071058;28;20424;-71
2022/07/13 08:19:04;;;;;;;2.15;0.70;;;21.50;66.40;;;;;;5072534;28;20123;-71
2022/07/13 08:21:30;;;;;;;3.05;1.00;;;21.80;67.20;;;;;;5073188;28;20100;-71
2022/07/13 08:23:56;;;;;;;1.95;0.90;;;21.70;66.00;;;;;;5064717;28;20021;-69
2022/07/13 08:26:27;;;;;;;2.17;1.10;;;21.80;66.10;;;;;;5063896;28;20021;-70
2022/07/13 08:28:54;;;;;;;1.98;0.65;;;22.20;67.00;;;;;;5072376;28;20470;-70
2022/07/13 08:31:21;;;;;;;1.92;0.82;;;22.30;65.90;;;;;;5071688;28;20029;-71
2022/07/13 08:39:17;;;;;;;1.10;0.80;;;22.40;63.90;;;;;;5047219;28;20121;-71
2022/07/13 08:41:43;;;;;;;2.75;0.80;;;22.50;63.10;;;;;;5044716;28;20019;-71
2022/07/13 08:44:09;;;;;;;1.88;0.90;;;22.60;63.20;;;;;;5045083;28;20018;-74
2022/07/13 08:46:35;;;;;;;2.05;0.82;;;22.90;64.30;;;;;;5048453;28;20426;-74
2022/07/13 08:49:02;;;;;;;4.47;1.30;;;22.80;62.40;;;;;;5052590;28;20107;-71
2022/07/13 08:51:30;;;;;;;2.28;0.80;;;22.70;62.90;;;;;;5071087;28;20538;-75
2022/07/13 08:53:56;;;;;;;4.68;1.10;;;22.80;64.10;;;;;;5070898;28;20029;-76
2022/07/13 08:56:22;;;;;;;2.55;0.80;;;23.00;64.20;;;;;;5069237;28;20102;-76
2022/07/13 08:58:49;;;;;;;1.25;0.80;;;23.00;61.20;;;;;;5062853;28;20020;-72
2022/07/13 09:01:15;;;;;;;3.15;0.82;;;23.00;59.20;;;;;;5071863;28;20044;-72
2022/07/13 09:03:42;;;;;;;0.73;0.73;;;22.80;59.10;;;;;;5063148;28;20077;-73
2022/07/13 09:06:08;;;;;;;0.80;0.80;;;23.00;59.60;;;;;;5069965;28;20032;-75
2022/07/13 09:08:43;;;;;;;1.40;0.55;;;23.00;60.20;;;;;;5072510;28;20047;-75
2022/07/13 09:11:09;;;;;;;3.35;0.88;;;23.00;59.80;;;;;;5070703;28;20032;-71
2022/07/13 09:13:40;;;;;;;3.50;0.80;;;22.70;59.20;;;;;;5059980;28;20600;-72
2022/07/13 09:16:28;;;;;;;3.92;0.68;;;22.60;59.80;;;;;;5071393;28;20125;-72
2022/07/13 09:18:56;;;;;;;4.45;0.70;;;22.80;59.10;;;;;;5071745;28;20024;-76
2022/07/13 09:21:23;;;;;;;1.92;0.70;;;23.20;61.00;;;;;;5072375;28;20064;-74
2022/07/13 09:23:54;;;;;;;1.75;0.70;;;23.10;58.90;;;;;;5071013;28;20425;-75
2022/07/13 09:26:21;;;;;;;1.17;0.70;;;23.00;58.70;;;;;;5053123;28;20033;-76
2022/07/13 09:28:48;;;;;;;1.60;0.70;;;23.10;58.20;;;;;;5045646;28;20022;-76
2022/07/13 09:31:15;;;;;;;1.55;0.65;;;23.30;57.80;;;;;;5052693;28;20029;-73
2022/07/13 09:33:45;;;;;;;1.55;0.80;;;23.30;58.10;;;;;;5041348;28;20378;-75
2022/07/13 09:36:22;;;;;;;0.85;0.85;;;23.50;58.20;;;;;;5071970;28;20553;-74
2022/07/13 09:38:52;;;;;;;2.22;0.85;;;23.70;58.30;;;;;;5070537;28;20094;-75
2022/07/13 09:41:25;;;;;;;2.28;0.95;;;23.50;57.30;;;;;;5071940;28;20055;-71
2022/07/13 09:47:09;;;;;;;1.20;1.02;;;23.40;56.90;;;;;;5071749;28;20394;-72
2022/07/13 09:49:46;;;;;;;1.60;0.90;;;23.20;58.00;;;;;;5075688;28;20041;-72
2022/07/13 09:52:16;;;;;;;2.55;1.40;;;23.20;57.60;;;;;;5049938;28;20528;-72
2022/07/13 09:54:43;;;;;;;1.52;0.90;;;23.30;57.40;;;;;;5075516;28;20044;-72
2022/07/13 09:57:13;;;;;;;0.70;0.70;;;23.30;58.20;;;;;;5074724;28;20041;-71
2022/07/13 09:59:43;;;;;;;1.83;1.30;;;23.20;57.60;;;;;;5075240;28;20032;-75
2022/07/13 10:02:09;;;;;;;1.73;0.98;;;23.30;57.90;;;;;;5063339;28;20144;-71
2022/07/13 10:04:36;;;;;;;1.90;0.80;;;23.20;57.60;;;;;;5044844;28;20029;-71
2022/07/13 10:07:03;;;;;;;0.70;0.70;;;23.30;57.80;;;;;;5062771;28;20080;-71
2022/07/13 10:09:32;;;;;;;5.05;1.20;;;23.60;58.60;;;;;;5050162;28;20018;-71
2022/07/13 10:11:59;;;;;;;1.70;0.90;;;23.60;57.90;;;;;;5048088;28;20030;-71
2022/07/13 10:14:26;;;;;;;2.80;1.08;;;23.70;56.90;;;;;;5047647;28;20419;-71
2022/07/13 10:17:02;;;;;;;1.73;0.90;;;23.80;56.50;;;;;;5046164;28;20052;-71
2022/07/13 10:19:29;;;;;;;0.85;0.70;;;23.80;56.90;;;;;;5051050;28;20021;-71
2022/07/13 10:22:01;;;;;;;0.70;0.70;;;24.10;57.90;;;;;;5049596;28;20487;-72
2022/07/13 10:24:30;;;;;;;1.33;0.85;;;24.10;57.10;;;;;;5047899;28;20033;-72
2022/07/13 10:27:18;;;;;;;3.13;0.90;;;24.40;57.10;;;;;;5048336;28;20036;-72
2022/07/13 10:29:51;;;;;;;0.95;0.90;;;24.40;55.90;;;;;;5046178;28;20009;-71
2022/07/13 10:32:20;;;;;;;1.75;0.77;;;24.40;55.40;;;;;;5067222;28;20045;-71
2022/07/13 10:35:00;;;;;;;0.75;0.75;;;24.10;55.20;;;;;;5059904;28;20028;-71
2022/07/13 10:37:27;;;;;;;2.17;0.77;;;24.30;55.80;;;;;;5051857;28;20047;-71
2022/07/13 10:40:20;;;;;;;0.63;0.63;;;24.50;55.60;;;;;;5074478;28;20390;-71
2022/07/13 10:42:54;;;;;;;1.55;0.70;;;24.20;54.10;;;;;;5074269;28;20133;-73
2022/07/13 10:45:32;;;;;;;1.00;0.77;;;24.30;55.40;;;;;;5073813;28;20066;-71
2022/07/13 10:47:59;;;;;;;1.90;1.02;;;24.30;56.20;;;;;;5073003;28;20048;-74
2022/07/13 10:50:26;;;;;;;0.70;0.70;;;24.20;56.50;;;;;;5073537;28;20024;-73
2022/07/13 10:52:52;;;;;;;1.33;0.80;;;24.20;55.70;;;;;;5074638;28;20043;-71
2022/07/13 10:55:21;;;;;;;2.65;0.68;;;24.30;55.40;;;;;;5072840;28;20028;-71
2022/07/13 10:57:46;;;;;;;5.43;1.20;;;24.30;55.20;;;;;;5060239;28;20497;-71
2022/07/13 11:00:23;;;;;;;1.05;0.95;;;24.40;56.20;;;;;;5073571;28;20060;-73
2022/07/13 11:03:02;;;;;;;1.50;0.77;;;24.40;57.00;;;;;;5064144;28;20045;-73
2022/07/13 11:05:35;;;;;;;6.75;1.60;;;24.40;55.60;;;;;;5073472;28;20031;-73
2022/07/13 11:08:15;;;;;;;2.10;1.02;;;24.60;54.50;;;;;;5074117;28;20058;-71
2022/07/13 11:10:42;;;;;;;1.48;0.88;;;24.30;54.80;;;;;;5074408;28;20024;-71
2022/07/13 11:13:14;;;;;;;0.73;0.73;;;24.50;56.40;;;;;;5063927;28;20037;-71
2022/07/13 11:15:50;;;;;;;0.93;0.68;;;24.60;55.90;;;;;;5071031;28;20032;-72
2022/07/13 11:18:31;;;;;;;3.95;0.85;;;24.50;53.80;;;;;;5074155;28;20037;-71
2022/07/13 11:21:12;;;;;;;1.42;0.65;;;24.60;53.00;;;;;;5047676;28;20471;-71
2022/07/13 11:26:34;;;;;;;0.98;0.80;;;24.80;53.20;;;;;;5074026;28;20040;-71
2022/07/13 11:29:03;;;;;;;1.80;0.75;;;24.60;53.10;;;;;;5055339;28;20063;-71
2022/07/13 11:31:30;;;;;;;2.50;0.95;;;24.50;53.40;;;;;;5045682;28;20025;-71
2022/07/13 11:33:57;;;;;;;3.60;1.00;;;24.80;55.10;;;;;;5046445;28;20121;-71
2022/07/13 11:36:24;;;;;;;1.33;0.70;;;24.70;55.40;;;;;;5044786;28;20037;-71
2022/07/13 11:38:51;;;;;;;2.03;0.80;;;24.80;55.00;;;;;;5045854;28;20024;-71
2022/07/13 11:41:20;;;;;;;1.30;0.82;;;25.10;54.30;;;;;;5046963;28;20021;-71
2022/07/13 11:43:49;;;;;;;0.95;0.80;;;25.30;52.40;;;;;;5044147;28;20445;-72
2022/07/13 11:46:22;;;;;;;2.38;0.60;;;25.10;51.60;;;;;;5044115;28;20697;-71
2022/07/13 11:48:56;;;;;;;1.02;0.73;;;25.30;52.70;;;;;;5044627;28;20044;-71
2022/07/13 11:51:23;;;;;;;0.70;0.70;;;25.70;52.10;;;;;;5048766;28;20016;-71
2022/07/13 11:53:49;;;;;;;3.10;1.10;;;26.20;52.20;;;;;;5044325;28;20033;-71
2022/07/13 11:56:15;;;;;;;1.42;1.02;;;26.30;50.90;;;;;;5045597;28;20115;-71
2022/07/13 11:58:45;;;;;;;0.75;0.75;;;26.20;50.70;;;;;;5044654;28;20033;-71
2022/07/13 12:01:16;;;;;;;2.55;1.05;;;25.90;50.30;;;;;;5042837;28;20112;-71
2022/07/13 12:03:49;;;;;;;1.70;0.65;;;25.80;50.90;;;;;;5042341;28;20029;-71
2022/07/13 12:06:14;;;;;;;;;;;25.50;49.90;;;;;;5045248;28;20035;-71
2022/07/13 12:08:42;;;;;;;1.58;1.00;;;25.70;50.10;;;;;;5044570;28;19904;-71
2022/07/13 12:11:16;;;;;;;1.25;0.85;;;25.80;50.50;;;;;;5049748;28;20039;-71
2022/07/13 12:13:44;;;;;;;2.58;0.85;;;26.20;51.70;;;;;;5042761;28;20437;-72
2022/07/13 12:16:11;;;;;;;0.80;0.80;;;26.10;51.30;;;;;;5045871;28;20025;-71
2022/07/13 12:19:01;;;;;;;0.75;0.70;;;26.20;51.10;;;;;;5046012;28;20033;-72
2022/07/13 12:21:27;;;;;;;1.17;1.00;;;26.10;50.70;;;;;;5043423;28;20013;-71
2022/07/13 12:23:53;;;;;;;1.83;0.80;;;26.00;52.00;;;;;;5045533;28;20045;-71
2022/07/13 12:26:19;;;;;;;1.65;0.90;;;25.80;52.00;;;;;;5044583;28;20024;-72
2022/07/13 12:28:45;;;;;;;2.10;0.90;;;25.50;52.40;;;;;;5043980;28;20032;-72
2022/07/13 12:31:11;;;;;;;1.27;0.82;;;25.40;51.80;;;;;;5043465;28;20028;-72
2022/07/13 12:33:47;;;;;;;1.02;1.00;;;25.40;52.40;;;;;;5054993;28;20040;-72
2022/07/13 12:36:18;;;;;;;1.42;1.10;;;25.40;52.90;;;;;;5059391;28;20056;-72
2022/07/13 12:38:54;;;;;;;1.48;1.00;;;25.50;53.90;;;;;;5045528;28;20374;-76
2022/07/13 12:41:42;;;;;;;2.45;1.10;;;25.50;52.90;;;;;;5072955;28;20025;-74
2022/07/13 12:44:08;;;;;;;3.38;1.10;;;25.40;52.30;;;;;;5054371;28;20033;-72
2022/07/13 12:46:51;;;;;;;1.55;0.93;;;25.60;52.20;;;;;;5044232;28;20022;-72
2022/07/13 12:49:17;;;;;;;1.65;1.23;;;25.60;51.60;;;;;;5045949;28;20045;-73
2022/07/13 12:51:49;;;;;;;1.25;1.20;;;25.50;51.60;;;;;;5040935;28;20013;-73
2022/07/13 12:54:15;;;;;;;2.35;1.10;;;25.50;52.10;;;;;;5046544;28;20122;-72
2022/07/13 12:56:52;;;;;;;1.40;0.90;;;25.30;52.80;;;;;;5064097;28;20067;-72
2022/07/13 12:59:20;;;;;;;1.20;1.10;;;25.20;53.10;;;;;;5061944;28;20036;-73
2022/07/13 13:01:47;;;;;;;1.20;0.82;;;24.90;53.00;;;;;;5072249;28;20466;-76